• Join FlightAware (Why Join?)
  • Login
  • US Flag 
02:08PM EDT


 

Airport Tracker/Info


-or-


 

Live Flight TrackerFlight Track Log ✈ AXM6057 ✈ 02-Sep-2013 ✈ WBGB / BTU - WBGG / KCH

Flight Track Log - Related Links

Times and Time Zones

All times are in EDT time to prevent confusion due to time zone crossing. See the AXM6057 flight status page for this flight to view local times or setup timezone preferences in your user account.

Time Position Orientation Groundspeed Altitude Reporting Facility
EDT Latitude Longitude Course Direction KTS MPH feet Rate Location/Type
11:18PM 1.9960 111.2880 233° Southwest 371 427 15,400  Level FlightAware
11:19PM 1.9630 111.2430 234° Southwest 359 413 14,600 -1,560 Descending FlightAware
11:20PM 1.9290 111.1850 240° Southwest 358 412 13,600 -1,500 Descending FlightAware
11:20PM 1.9020 111.1380 240° Southwest 356 410 12,800 -1,560 Descending FlightAware
11:21PM 1.8710 111.0840 240° Southwest 352 405 11,800 -1,560 Descending FlightAware
11:21PM 1.8480 111.0430 241° Southwest 347 399 11,100 -1,440 Descending FlightAware
11:22PM 1.8170 110.9900 240° Southwest 332 382 10,200 -1,080 Descending FlightAware
11:22PM 1.7990 110.9600 239° Southwest 313 360 10,000 -1,020 Descending FlightAware
11:23PM 1.7820 110.9290 241° Southwest 310 357 9,400 -1,260 Descending FlightAware
11:23PM 1.7680 110.9040 241° Southwest 307 353 9,000 -1,320 Descending FlightAware
11:23PM 1.7550 110.8820 239° Southwest 304 350 8,600 -1,560 Descending FlightAware
11:24PM 1.7410 110.8580 240° Southwest 302 348 8,100 -1,500 Descending FlightAware
11:24PM 1.7270 110.8340 240° Southwest 300 345 7,600 -1,620 Descending FlightAware
11:24PM 1.7120 110.8080 240° Southwest 300 345 7,000 -1,740 Descending FlightAware
11:25PM 1.6980 110.7840 240° Southwest 298 343 6,400 -1,500 Descending FlightAware
11:25PM 1.6880 110.7670 240° Southwest 292 336 6,100 -1,440 Descending FlightAware
11:25PM 1.6720 110.7390 240° Southwest 288 331 5,500 -1,740 Descending FlightAware
11:26PM 1.6540 110.7060 241° Southwest 285 328 4,700 -1,440 Descending FlightAware
11:26PM 1.6420 110.6860 239° Southwest 277 319 4,400 -1,140 Descending FlightAware
11:27PM 1.6260 110.6580 240° Southwest 271 312 3,800 -1,080 Descending FlightAware
11:27PM 1.6100 110.6300 240° Southwest 251 289 3,500 -780 Descending FlightAware
11:27PM 1.6000 110.6140 238° Southwest 241 277 3,300 -600 Descending FlightAware
11:28PM 1.5880 110.5920 241° Southwest 226 260 3,100 -540 Descending FlightAware
11:28PM 1.5760 110.5720 239° Southwest 214 246 2,900 -600 Descending FlightAware
11:28PM 1.5670 110.5550 242° Southwest 204 235 2,700 -600 Descending FlightAware
11:29PM 1.5610 110.5390 249° West 195 224 2,500 -540 Descending FlightAware
11:29PM 1.5570 110.5270 252° West 188 216 2,400 -300 Descending FlightAware
11:29PM 1.5470 110.5030 247° West 175 201 2,300 -180 Descending FlightAware
11:30PM 1.5410 110.4880 248° West 152 175 2,300  Level FlightAware
11:30PM 1.5380 110.4790 252° West 144 166 2,300 -360 Level FlightAware
11:30PM 1.5330 110.4670 247° West 141 162 2,100 -660 Descending FlightAware
11:31PM 1.5280 110.4550 247° West 138 159 1,900 -720 Descending FlightAware
11:31PM 1.5220 110.4400 248° West 137 158 1,600 -780 Descending FlightAware
11:32PM 1.5160 110.4250 248° West 133 153 1,300 -840 Descending FlightAware
11:32PM 1.5110 110.4130 247° West 134 154 1,000 -720 Descending FlightAware
11:32PM 1.5060 110.4000 249° West 132 152 800 -600 Descending FlightAware
11:33PM 1.5020 110.3900 248° West 132 152 600 -600 Descending FlightAware
11:33PM 1.4990 110.3830 247° West 133 153 500 -720 Descending FlightAware
11:33PM 1.4940 110.3700 249° West 131 151 200 -840 Descending FlightAware
11:33PM 1.4900 110.3590 250° West 100 115 -600 Descending FlightAware